Etown, Pennsylvania
Current Conditions -  °F | °C
As of 6:56 AM on Tuesday 21 Oct 2014 (Local Time) from KMDT Reporting Station
Haze Haze  
Wind Chill: 49°   Ceiling: 9500
Heat Index: 49°   Visibility: 2.5mi
Dew Point: 48°   Wind: 0mph
Humidity: 97%   Direction: NA
Pressure: 29.85"   Gusts: NA
Location:  40.1674°N, 76.6045°W
Report Text: KMDT 211056Z 00000KT 2 1/2SM BR BKN095 09/09 A2985 RMK AO2 SLP110 T00940089
Loading
Personal Weather Stations






























Interactive Weather Map
Tropical Storm Tracking
New forecast layout! Learn more

10-Day Weather Forecast

Advertisements
Track Severe Weather on mobile